sensor_id;sensor_type;location;lat;lon;timestamp;P1;durP1;ratioP1;P2;durP2;ratioP2
77581;SDS011;66726;52.388;9.986;2023-06-01T00:00:20;13.80;;;6.37;;
77581;SDS011;66726;52.388;9.986;2023-06-01T00:02:54;8.40;;;6.50;;
77581;SDS011;66726;52.388;9.986;2023-06-01T00:05:27;12.60;;;6.77;;
77581;SDS011;66726;52.388;9.986;2023-06-01T00:08:00;15.13;;;7.40;;
77581;SDS011;66726;52.388;9.986;2023-06-01T00:10:35;11.80;;;6.07;;
77581;SDS011;66726;52.388;9.986;2023-06-01T00:13:08;10.60;;;6.23;;
77581;SDS011;66726;52.388;9.986;2023-06-01T00:15:41;14.63;;;7.40;;
77581;SDS011;66726;52.388;9.986;2023-06-01T00:18:15;14.77;;;6.87;;
77581;SDS011;66726;52.388;9.986;2023-06-01T00:20:48;13.13;;;6.60;;
77581;SDS011;66726;52.388;9.986;2023-06-01T00:23:21;11.73;;;6.90;;
77581;SDS011;66726;52.388;9.986;2023-06-01T00:25:56;10.70;;;6.80;;
77581;SDS011;66726;52.388;9.986;2023-06-01T00:28:30;9.97;;;5.97;;
77581;SDS011;66726;52.388;9.986;2023-06-01T00:31:04;11.13;;;7.03;;
77581;SDS011;66726;52.388;9.986;2023-06-01T00:33:37;9.80;;;5.83;;
77581;SDS011;66726;52.388;9.986;2023-06-01T00:36:11;12.87;;;6.57;;
77581;SDS011;66726;52.388;9.986;2023-06-01T00:38:44;9.67;;;6.20;;
77581;SDS011;66726;52.388;9.986;2023-06-01T00:41:17;14.43;;;6.43;;
77581;SDS011;66726;52.388;9.986;2023-06-01T00:43:50;15.20;;;6.83;;
77581;SDS011;66726;52.388;9.986;2023-06-01T00:46:23;13.23;;;6.07;;
77581;SDS011;66726;52.388;9.986;2023-06-01T00:49:00;11.73;;;6.47;;
77581;SDS011;66726;52.388;9.986;2023-06-01T00:51:34;10.97;;;5.57;;
77581;SDS011;66726;52.388;9.986;2023-06-01T00:54:08;9.67;;;6.27;;
77581;SDS011;66726;52.388;9.986;2023-06-01T00:56:42;13.53;;;6.30;;
77581;SDS011;66726;52.388;9.986;2023-06-01T00:59:15;11.00;;;5.70;;
77581;SDS011;66726;52.388;9.986;2023-06-01T01:01:49;8.80;;;5.73;;
77581;SDS011;66726;52.388;9.986;2023-06-01T01:04:22;11.37;;;5.80;;
77581;SDS011;66726;52.388;9.986;2023-06-01T01:06:59;9.37;;;5.63;;
77581;SDS011;66726;52.388;9.986;2023-06-01T01:09:52;8.40;;;5.50;;
77581;SDS011;66726;52.388;9.986;2023-06-01T01:12:38;12.87;;;5.33;;
77581;SDS011;66726;52.388;9.986;2023-06-01T01:15:23;10.63;;;5.50;;
77581;SDS011;66726;52.388;9.986;2023-06-01T01:18:15;10.00;;;5.43;;
77581;SDS011;66726;52.388;9.986;2023-06-01T01:21:01;11.47;;;5.77;;
77581;SDS011;66726;52.388;9.986;2023-06-01T01:23:55;11.33;;;5.30;;
77581;SDS011;66726;52.388;9.986;2023-06-01T01:27:04;10.77;;;5.50;;
77581;SDS011;66726;52.388;9.986;2023-06-01T01:29:53;9.97;;;5.50;;
77581;SDS011;66726;52.388;9.986;2023-06-01T01:32:33;11.93;;;5.80;;
77581;SDS011;66726;52.388;9.986;2023-06-01T01:35:09;11.47;;;5.57;;
77581;SDS011;66726;52.388;9.986;2023-06-01T01:37:51;8.50;;;5.07;;
77581;SDS011;66726;52.388;9.986;2023-06-01T01:40:24;12.00;;;5.90;;
77581;SDS011;66726;52.388;9.986;2023-06-01T01:42:58;8.20;;;6.00;;
77581;SDS011;66726;52.388;9.986;2023-06-01T01:45:33;10.63;;;6.00;;
77581;SDS011;66726;52.388;9.986;2023-06-01T01:48:10;9.30;;;5.67;;
77581;SDS011;66726;52.388;9.986;2023-06-01T01:50:53;12.23;;;6.00;;
77581;SDS011;66726;52.388;9.986;2023-06-01T01:53:36;10.30;;;5.97;;
77581;SDS011;66726;52.388;9.986;2023-06-01T01:56:14;12.83;;;6.07;;
77581;SDS011;66726;52.388;9.986;2023-06-01T01:58:49;10.23;;;6.03;;
77581;SDS011;66726;52.388;9.986;2023-06-01T02:01:24;12.13;;;6.13;;
77581;SDS011;66726;52.388;9.986;2023-06-01T02:04:01;10.10;;;6.17;;
77581;SDS011;66726;52.388;9.986;2023-06-01T02:06:35;12.40;;;6.47;;
77581;SDS011;66726;52.388;9.986;2023-06-01T02:09:09;11.70;;;6.63;;
77581;SDS011;66726;52.388;9.986;2023-06-01T02:11:43;11.43;;;6.63;;
77581;SDS011;66726;52.388;9.986;2023-06-01T02:14:16;15.77;;;6.53;;
77581;SDS011;66726;52.388;9.986;2023-06-01T02:16:49;14.20;;;5.87;;
77581;SDS011;66726;52.388;9.986;2023-06-01T02:19:23;8.97;;;5.90;;
77581;SDS011;66726;52.388;9.986;2023-06-01T02:21:57;11.13;;;6.10;;
77581;SDS011;66726;52.388;9.986;2023-06-01T02:24:31;9.83;;;5.80;;
77581;SDS011;66726;52.388;9.986;2023-06-01T02:27:05;9.50;;;5.80;;
77581;SDS011;66726;52.388;9.986;2023-06-01T02:29:39;9.33;;;5.43;;
77581;SDS011;66726;52.388;9.986;2023-06-01T02:32:12;9.80;;;6.07;;
77581;SDS011;66726;52.388;9.986;2023-06-01T02:34:46;10.87;;;5.83;;
77581;SDS011;66726;52.388;9.986;2023-06-01T02:37:19;10.57;;;5.90;;
77581;SDS011;66726;52.388;9.986;2023-06-01T02:39:53;11.77;;;6.43;;
77581;SDS011;66726;52.388;9.986;2023-06-01T02:42:26;14.37;;;7.43;;
77581;SDS011;66726;52.388;9.986;2023-06-01T02:44:59;11.63;;;6.90;;
77581;SDS011;66726;52.388;9.986;2023-06-01T02:47:33;13.27;;;7.27;;
77581;SDS011;66726;52.388;9.986;2023-06-01T02:50:07;9.80;;;6.00;;
77581;SDS011;66726;52.388;9.986;2023-06-01T02:52:42;11.77;;;6.27;;
77581;SDS011;66726;52.388;9.986;2023-06-01T02:55:16;10.60;;;6.30;;
77581;SDS011;66726;52.388;9.986;2023-06-01T02:57:49;16.47;;;7.40;;
77581;SDS011;66726;52.388;9.986;2023-06-01T03:00:23;13.50;;;6.40;;
77581;SDS011;66726;52.388;9.986;2023-06-01T03:02:56;9.13;;;6.90;;
77581;SDS011;66726;52.388;9.986;2023-06-01T03:05:32;10.23;;;6.90;;
77581;SDS011;66726;52.388;9.986;2023-06-01T03:08:06;11.30;;;6.83;;
77581;SDS011;66726;52.388;9.986;2023-06-01T03:10:39;11.17;;;6.53;;
77581;SDS011;66726;52.388;9.986;2023-06-01T03:13:13;14.77;;;7.20;;
77581;SDS011;66726;52.388;9.986;2023-06-01T03:15:46;11.33;;;6.57;;
77581;SDS011;66726;52.388;9.986;2023-06-01T03:18:19;14.50;;;6.57;;
77581;SDS011;66726;52.388;9.986;2023-06-01T03:20:53;11.53;;;6.90;;
77581;SDS011;66726;52.388;9.986;2023-06-01T03:23:27;13.03;;;7.10;;
77581;SDS011;66726;52.388;9.986;2023-06-01T03:26:00;14.67;;;6.87;;
77581;SDS011;66726;52.388;9.986;2023-06-01T03:28:33;13.03;;;6.83;;
77581;SDS011;66726;52.388;9.986;2023-06-01T03:31:07;16.73;;;6.73;;
77581;SDS011;66726;52.388;9.986;2023-06-01T03:33:41;12.87;;;6.77;;
77581;SDS011;66726;52.388;9.986;2023-06-01T03:36:14;12.83;;;6.53;;
77581;SDS011;66726;52.388;9.986;2023-06-01T03:38:48;11.80;;;6.60;;
77581;SDS011;66726;52.388;9.986;2023-06-01T03:41:21;11.17;;;6.23;;
77581;SDS011;66726;52.388;9.986;2023-06-01T03:43:55;11.30;;;6.73;;
77581;SDS011;66726;52.388;9.986;2023-06-01T03:46:28;13.83;;;7.47;;
77581;SDS011;66726;52.388;9.986;2023-06-01T03:49:01;12.70;;;7.10;;
77581;SDS011;66726;52.388;9.986;2023-06-01T03:51:35;14.17;;;7.20;;
77581;SDS011;66726;52.388;9.986;2023-06-01T03:54:08;11.87;;;6.97;;
77581;SDS011;66726;52.388;9.986;2023-06-01T03:56:41;12.97;;;7.40;;
77581;SDS011;66726;52.388;9.986;2023-06-01T03:59:15;12.33;;;7.10;;
77581;SDS011;66726;52.388;9.986;2023-06-01T04:01:48;13.73;;;7.50;;
77581;SDS011;66726;52.388;9.986;2023-06-01T04:04:22;13.87;;;7.33;;
77581;SDS011;66726;52.388;9.986;2023-06-01T04:07:00;12.60;;;7.37;;
77581;SDS011;66726;52.388;9.986;2023-06-01T04:09:37;12.90;;;7.10;;
77581;SDS011;66726;52.388;9.986;2023-06-01T04:12:11;13.53;;;7.20;;
77581;SDS011;66726;52.388;9.986;2023-06-01T04:14:44;13.67;;;7.80;;
77581;SDS011;66726;52.388;9.986;2023-06-01T04:17:17;13.50;;;7.53;;
77581;SDS011;66726;52.388;9.986;2023-06-01T04:19:50;9.83;;;6.73;;
77581;SDS011;66726;52.388;9.986;2023-06-01T04:22:24;12.60;;;7.40;;
77581;SDS011;66726;52.388;9.986;2023-06-01T04:24:57;13.33;;;7.20;;
77581;SDS011;66726;52.388;9.986;2023-06-01T04:27:31;9.93;;;6.23;;
77581;SDS011;66726;52.388;9.986;2023-06-01T04:30:05;11.20;;;6.50;;
77581;SDS011;66726;52.388;9.986;2023-06-01T04:32:41;11.57;;;6.00;;
77581;SDS011;66726;52.388;9.986;2023-06-01T04:35:16;9.60;;;6.37;;
77581;SDS011;66726;52.388;9.986;2023-06-01T04:37:50;9.23;;;5.80;;
77581;SDS011;66726;52.388;9.986;2023-06-01T04:40:23;9.43;;;5.67;;
77581;SDS011;66726;52.388;9.986;2023-06-01T04:42:57;9.53;;;5.87;;
77581;SDS011;66726;52.388;9.986;2023-06-01T04:45:31;11.03;;;5.47;;
77581;SDS011;66726;52.388;9.986;2023-06-01T04:48:06;10.63;;;5.40;;
77581;SDS011;66726;52.388;9.986;2023-06-01T04:50:40;9.33;;;5.63;;
77581;SDS011;66726;52.388;9.986;2023-06-01T04:53:13;10.53;;;6.57;;
77581;SDS011;66726;52.388;9.986;2023-06-01T04:55:47;12.13;;;6.20;;
77581;SDS011;66726;52.388;9.986;2023-06-01T04:58:22;10.23;;;6.10;;
77581;SDS011;66726;52.388;9.986;2023-06-01T05:00:55;11.10;;;5.70;;
77581;SDS011;66726;52.388;9.986;2023-06-01T05:03:29;10.63;;;5.87;;
77581;SDS011;66726;52.388;9.986;2023-06-01T05:06:02;10.47;;;5.60;;
77581;SDS011;66726;52.388;9.986;2023-06-01T05:08:36;12.10;;;5.70;;
77581;SDS011;66726;52.388;9.986;2023-06-01T05:11:10;8.97;;;5.43;;
77581;SDS011;66726;52.388;9.986;2023-06-01T05:13:45;11.80;;;5.77;;
77581;SDS011;66726;52.388;9.986;2023-06-01T05:16:20;11.47;;;5.77;;
77581;SDS011;66726;52.388;9.986;2023-06-01T05:18:54;13.13;;;6.20;;
77581;SDS011;66726;52.388;9.986;2023-06-01T05:21:27;13.23;;;5.87;;
77581;SDS011;66726;52.388;9.986;2023-06-01T05:24:01;10.77;;;5.60;;
77581;SDS011;66726;52.388;9.986;2023-06-01T05:26:35;11.17;;;5.60;;
77581;SDS011;66726;52.388;9.986;2023-06-01T05:29:09;8.67;;;6.13;;
77581;SDS011;66726;52.388;9.986;2023-06-01T05:31:42;10.13;;;5.37;;
77581;SDS011;66726;52.388;9.986;2023-06-01T05:34:17;11.07;;;6.10;;
77581;SDS011;66726;52.388;9.986;2023-06-01T05:36:50;9.70;;;5.40;;
77581;SDS011;66726;52.388;9.986;2023-06-01T05:39:23;11.83;;;5.23;;
77581;SDS011;66726;52.388;9.986;2023-06-01T05:41:57;11.67;;;6.10;;
77581;SDS011;66726;52.388;9.986;2023-06-01T05:44:30;8.53;;;5.80;;
77581;SDS011;66726;52.388;9.986;2023-06-01T05:47:05;11.20;;;5.50;;
77581;SDS011;66726;52.388;9.986;2023-06-01T05:49:38;12.43;;;5.33;;
77581;SDS011;66726;52.388;9.986;2023-06-01T05:52:11;11.43;;;5.03;;
77581;SDS011;66726;52.388;9.986;2023-06-01T05:54:45;8.80;;;4.93;;
77581;SDS011;66726;52.388;9.986;2023-06-01T05:57:21;8.40;;;4.73;;
77581;SDS011;66726;52.388;9.986;2023-06-01T05:59:55;8.93;;;4.90;;
77581;SDS011;66726;52.388;9.986;2023-06-01T06:02:28;9.97;;;5.03;;
77581;SDS011;66726;52.388;9.986;2023-06-01T06:05:02;10.03;;;5.10;;
77581;SDS011;66726;52.388;9.986;2023-06-01T06:07:38;11.13;;;4.93;;
77581;SDS011;66726;52.388;9.986;2023-06-01T06:10:12;10.60;;;5.40;;
77581;SDS011;66726;52.388;9.986;2023-06-01T06:12:45;10.23;;;5.23;;
77581;SDS011;66726;52.388;9.986;2023-06-01T06:15:19;12.03;;;5.30;;
77581;SDS011;66726;52.388;9.986;2023-06-01T06:17:53;11.63;;;5.50;;
77581;SDS011;66726;52.388;9.986;2023-06-01T06:20:27;9.43;;;5.73;;
77581;SDS011;66726;52.388;9.986;2023-06-01T06:23:00;8.17;;;5.53;;
77581;SDS011;66726;52.388;9.986;2023-06-01T06:25:33;13.00;;;5.73;;
77581;SDS011;66726;52.388;9.986;2023-06-01T06:28:08;11.03;;;5.50;;
77581;SDS011;66726;52.388;9.986;2023-06-01T06:30:41;8.70;;;5.17;;
77581;SDS011;66726;52.388;9.986;2023-06-01T06:33:14;15.33;;;6.73;;
77581;SDS011;66726;52.388;9.986;2023-06-01T06:35:48;10.57;;;6.07;;
77581;SDS011;66726;52.388;9.986;2023-06-01T06:38:22;12.90;;;5.57;;
77581;SDS011;66726;52.388;9.986;2023-06-01T06:40:55;12.83;;;6.70;;
77581;SDS011;66726;52.388;9.986;2023-06-01T06:43:29;15.77;;;5.80;;
77581;SDS011;66726;52.388;9.986;2023-06-01T06:46:03;15.63;;;6.10;;
77581;SDS011;66726;52.388;9.986;2023-06-01T06:48:37;9.87;;;5.43;;
77581;SDS011;66726;52.388;9.986;2023-06-01T06:51:10;13.30;;;5.43;;
77581;SDS011;66726;52.388;9.986;2023-06-01T06:53:43;8.30;;;5.60;;
77581;SDS011;66726;52.388;9.986;2023-06-01T06:56:17;12.97;;;6.20;;
77581;SDS011;66726;52.388;9.986;2023-06-01T06:58:50;8.60;;;5.50;;
77581;SDS011;66726;52.388;9.986;2023-06-01T07:01:35;7.27;;;5.20;;
77581;SDS011;66726;52.388;9.986;2023-06-01T07:04:11;10.10;;;5.80;;
77581;SDS011;66726;52.388;9.986;2023-06-01T07:06:44;9.90;;;5.53;;
77581;SDS011;66726;52.388;9.986;2023-06-01T07:09:18;12.40;;;6.03;;
77581;SDS011;66726;52.388;9.986;2023-06-01T07:11:52;8.90;;;6.03;;
77581;SDS011;66726;52.388;9.986;2023-06-01T07:14:25;8.93;;;5.37;;
77581;SDS011;66726;52.388;9.986;2023-06-01T07:16:59;10.80;;;6.00;;
77581;SDS011;66726;52.388;9.986;2023-06-01T07:19:34;8.57;;;5.70;;
77581;SDS011;66726;52.388;9.986;2023-06-01T07:22:07;10.90;;;5.63;;
77581;SDS011;66726;52.388;9.986;2023-06-01T07:24:41;9.57;;;5.70;;
77581;SDS011;66726;52.388;9.986;2023-06-01T07:27:16;7.53;;;5.67;;
77581;SDS011;66726;52.388;9.986;2023-06-01T07:29:49;13.53;;;6.60;;
77581;SDS011;66726;52.388;9.986;2023-06-01T07:32:24;13.17;;;6.70;;
77581;SDS011;66726;52.388;9.986;2023-06-01T07:34:58;14.67;;;6.90;;
77581;SDS011;66726;52.388;9.986;2023-06-01T07:37:33;11.70;;;6.00;;
77581;SDS011;66726;52.388;9.986;2023-06-01T07:40:07;11.07;;;6.50;;
77581;SDS011;66726;52.388;9.986;2023-06-01T07:42:42;13.77;;;7.00;;
77581;SDS011;66726;52.388;9.986;2023-06-01T07:45:15;10.47;;;5.70;;
77581;SDS011;66726;52.388;9.986;2023-06-01T07:47:49;9.40;;;6.17;;
77581;SDS011;66726;52.388;9.986;2023-06-01T07:50:22;9.97;;;5.87;;
77581;SDS011;66726;52.388;9.986;2023-06-01T07:52:59;11.33;;;6.03;;
77581;SDS011;66726;52.388;9.986;2023-06-01T07:55:32;9.30;;;6.20;;
77581;SDS011;66726;52.388;9.986;2023-06-01T07:58:06;9.63;;;6.60;;
77581;SDS011;66726;52.388;9.986;2023-06-01T08:00:40;12.90;;;6.60;;
77581;SDS011;66726;52.388;9.986;2023-06-01T08:03:13;13.27;;;6.40;;
77581;SDS011;66726;52.388;9.986;2023-06-01T08:05:49;11.93;;;6.40;;
77581;SDS011;66726;52.388;9.986;2023-06-01T08:08:25;15.50;;;7.37;;
77581;SDS011;66726;52.388;9.986;2023-06-01T08:10:58;13.43;;;7.40;;
77581;SDS011;66726;52.388;9.986;2023-06-01T08:13:31;10.67;;;6.80;;
77581;SDS011;66726;52.388;9.986;2023-06-01T08:16:06;11.77;;;6.83;;
77581;SDS011;66726;52.388;9.986;2023-06-01T08:18:41;15.73;;;7.53;;
77581;SDS011;66726;52.388;9.986;2023-06-01T08:21:14;10.77;;;6.37;;
77581;SDS011;66726;52.388;9.986;2023-06-01T08:23:48;11.57;;;6.90;;
77581;SDS011;66726;52.388;9.986;2023-06-01T08:26:22;12.97;;;7.50;;
77581;SDS011;66726;52.388;9.986;2023-06-01T08:28:56;11.83;;;6.53;;
77581;SDS011;66726;52.388;9.986;2023-06-01T08:31:31;12.83;;;6.63;;
77581;SDS011;66726;52.388;9.986;2023-06-01T08:34:06;14.43;;;6.80;;
77581;SDS011;66726;52.388;9.986;2023-06-01T08:36:39;12.90;;;7.47;;
77581;SDS011;66726;52.388;9.986;2023-06-01T08:39:22;12.03;;;6.80;;
77581;SDS011;66726;52.388;9.986;2023-06-01T08:42:02;9.87;;;6.93;;
77581;SDS011;66726;52.388;9.986;2023-06-01T08:44:43;11.47;;;6.43;;
77581;SDS011;66726;52.388;9.986;2023-06-01T08:47:16;15.63;;;7.20;;
77581;SDS011;66726;52.388;9.986;2023-06-01T08:49:52;12.47;;;6.53;;
77581;SDS011;66726;52.388;9.986;2023-06-01T08:52:29;13.17;;;7.23;;
77581;SDS011;66726;52.388;9.986;2023-06-01T08:55:07;16.57;;;6.67;;
77581;SDS011;66726;52.388;9.986;2023-06-01T08:57:42;11.97;;;7.10;;
77581;SDS011;66726;52.388;9.986;2023-06-01T09:00:17;14.57;;;7.63;;
77581;SDS011;66726;52.388;9.986;2023-06-01T09:02:53;14.30;;;6.93;;
77581;SDS011;66726;52.388;9.986;2023-06-01T09:05:27;11.03;;;7.07;;
77581;SDS011;66726;52.388;9.986;2023-06-01T09:08:00;9.77;;;6.30;;
77581;SDS011;66726;52.388;9.986;2023-06-01T09:10:35;9.60;;;6.53;;
77581;SDS011;66726;52.388;9.986;2023-06-01T09:13:08;8.87;;;6.30;;
77581;SDS011;66726;52.388;9.986;2023-06-01T09:18:30;13.40;;;6.93;;
77581;SDS011;66726;52.388;9.986;2023-06-01T09:21:14;14.93;;;6.83;;
77581;SDS011;66726;52.388;9.986;2023-06-01T09:23:48;8.53;;;6.70;;
77581;SDS011;66726;52.388;9.986;2023-06-01T09:26:25;11.80;;;6.53;;
77581;SDS011;66726;52.388;9.986;2023-06-01T09:28:59;8.87;;;6.60;;
77581;SDS011;66726;52.388;9.986;2023-06-01T09:31:38;10.23;;;6.57;;
77581;SDS011;66726;52.388;9.986;2023-06-01T09:34:14;10.93;;;6.80;;
77581;SDS011;66726;52.388;9.986;2023-06-01T09:36:50;11.93;;;7.17;;
77581;SDS011;66726;52.388;9.986;2023-06-01T09:39:25;12.17;;;6.97;;
77581;SDS011;66726;52.388;9.986;2023-06-01T09:42:03;12.70;;;8.10;;
77581;SDS011;66726;52.388;9.986;2023-06-01T09:44:38;15.07;;;7.40;;
77581;SDS011;66726;52.388;9.986;2023-06-01T09:47:14;14.67;;;8.20;;
77581;SDS011;66726;52.388;9.986;2023-06-01T09:49:50;11.27;;;7.10;;
77581;SDS011;66726;52.388;9.986;2023-06-01T09:52:30;14.47;;;6.73;;
77581;SDS011;66726;52.388;9.986;2023-06-01T09:55:06;10.10;;;6.57;;
77581;SDS011;66726;52.388;9.986;2023-06-01T09:57:40;8.80;;;5.27;;
77581;SDS011;66726;52.388;9.986;2023-06-01T10:00:17;6.03;;;4.87;;
77581;SDS011;66726;52.388;9.986;2023-06-01T10:02:55;8.90;;;5.30;;
77581;SDS011;66726;52.388;9.986;2023-06-01T10:05:29;6.67;;;4.80;;
77581;SDS011;66726;52.388;9.986;2023-06-01T10:08:03;8.17;;;5.03;;
77581;SDS011;66726;52.388;9.986;2023-06-01T10:10:39;6.80;;;4.63;;
77581;SDS011;66726;52.388;9.986;2023-06-01T10:13:14;8.53;;;4.80;;
77581;SDS011;66726;52.388;9.986;2023-06-01T10:15:50;6.37;;;4.30;;
77581;SDS011;66726;52.388;9.986;2023-06-01T10:18:27;6.63;;;4.13;;
77581;SDS011;66726;52.388;9.986;2023-06-01T10:21:01;5.57;;;3.63;;
77581;SDS011;66726;52.388;9.986;2023-06-01T10:23:36;7.53;;;3.70;;
77581;SDS011;66726;52.388;9.986;2023-06-01T10:26:13;5.30;;;4.07;;
77581;SDS011;66726;52.388;9.986;2023-06-01T10:28:50;5.60;;;3.80;;
77581;SDS011;66726;52.388;9.986;2023-06-01T10:31:39;5.10;;;3.60;;
77581;SDS011;66726;52.388;9.986;2023-06-01T10:34:14;5.90;;;3.30;;
77581;SDS011;66726;52.388;9.986;2023-06-01T10:37:14;5.97;;;3.27;;
77581;SDS011;66726;52.388;9.986;2023-06-01T10:39:48;4.10;;;3.30;;
77581;SDS011;66726;52.388;9.986;2023-06-01T10:42:38;4.93;;;3.40;;
77581;SDS011;66726;52.388;9.986;2023-06-01T10:48:12;4.00;;;3.60;;
77581;SDS011;66726;52.388;9.986;2023-06-01T10:50:46;4.73;;;4.13;;
77581;SDS011;66726;52.388;9.986;2023-06-01T10:53:53;4.93;;;3.57;;
77581;SDS011;66726;52.388;9.986;2023-06-01T11:02:54;5.00;;;4.10;;
77581;SDS011;66726;52.388;9.986;2023-06-01T11:05:39;4.40;;;4.00;;
77581;SDS011;66726;52.388;9.986;2023-06-01T11:14:30;5.67;;;3.97;;
77581;SDS011;66726;52.388;9.986;2023-06-01T11:20:02;7.37;;;4.13;;
77581;SDS011;66726;52.388;9.986;2023-06-01T11:22:39;5.33;;;4.40;;
77581;SDS011;66726;52.388;9.986;2023-06-01T11:25:14;7.10;;;3.70;;
77581;SDS011;66726;52.388;9.986;2023-06-01T11:27:51;5.27;;;4.20;;
77581;SDS011;66726;52.388;9.986;2023-06-01T11:30:25;5.63;;;4.20;;
77581;SDS011;66726;52.388;9.986;2023-06-01T11:32:59;8.70;;;4.30;;
77581;SDS011;66726;52.388;9.986;2023-06-01T11:35:35;6.07;;;4.17;;
77581;SDS011;66726;52.388;9.986;2023-06-01T11:38:08;6.23;;;3.60;;
77581;SDS011;66726;52.388;9.986;2023-06-01T11:40:57;5.93;;;3.77;;
77581;SDS011;66726;52.388;9.986;2023-06-01T11:43:32;3.70;;;3.23;;
77581;SDS011;66726;52.388;9.986;2023-06-01T11:46:06;5.77;;;3.33;;
77581;SDS011;66726;52.388;9.986;2023-06-01T11:48:59;4.73;;;3.30;;
77581;SDS011;66726;52.388;9.986;2023-06-01T11:51:35;3.80;;;3.50;;
77581;SDS011;66726;52.388;9.986;2023-06-01T11:54:10;4.63;;;4.07;;
77581;SDS011;66726;52.388;9.986;2023-06-01T11:56:43;4.70;;;4.20;;
77581;SDS011;66726;52.388;9.986;2023-06-01T11:59:17;4.57;;;3.87;;
77581;SDS011;66726;52.388;9.986;2023-06-01T12:01:51;5.17;;;3.87;;
77581;SDS011;66726;52.388;9.986;2023-06-01T12:04:25;5.23;;;4.60;;
77581;SDS011;66726;52.388;9.986;2023-06-01T12:07:07;7.23;;;4.20;;
77581;SDS011;66726;52.388;9.986;2023-06-01T12:09:40;7.17;;;4.70;;
77581;SDS011;66726;52.388;9.986;2023-06-01T12:12:14;6.03;;;4.67;;
77581;SDS011;66726;52.388;9.986;2023-06-01T12:14:49;5.40;;;4.50;;
77581;SDS011;66726;52.388;9.986;2023-06-01T12:17:24;5.17;;;4.00;;
77581;SDS011;66726;52.388;9.986;2023-06-01T12:20:27;6.47;;;4.27;;
77581;SDS011;66726;52.388;9.986;2023-06-01T12:23:14;4.27;;;3.87;;
77581;SDS011;66726;52.388;9.986;2023-06-01T12:25:50;5.77;;;3.90;;
77581;SDS011;66726;52.388;9.986;2023-06-01T12:28:27;4.00;;;3.30;;
77581;SDS011;66726;52.388;9.986;2023-06-01T12:31:25;7.63;;;4.33;;
77581;SDS011;66726;52.388;9.986;2023-06-01T12:33:59;7.60;;;4.37;;
77581;SDS011;66726;52.388;9.986;2023-06-01T12:36:44;5.97;;;3.83;;
77581;SDS011;66726;52.388;9.986;2023-06-01T12:39:24;5.50;;;4.30;;
77581;SDS011;66726;52.388;9.986;2023-06-01T12:42:07;4.73;;;3.37;;
77581;SDS011;66726;52.388;9.986;2023-06-01T12:44:41;4.73;;;3.80;;
77581;SDS011;66726;52.388;9.986;2023-06-01T12:47:20;4.90;;;4.43;;
77581;SDS011;66726;52.388;9.986;2023-06-01T12:50:06;6.53;;;4.17;;
77581;SDS011;66726;52.388;9.986;2023-06-01T12:52:42;6.87;;;4.30;;
77581;SDS011;66726;52.388;9.986;2023-06-01T12:55:16;7.60;;;4.70;;
77581;SDS011;66726;52.388;9.986;2023-06-01T12:57:53;7.27;;;4.50;;
77581;SDS011;66726;52.388;9.986;2023-06-01T13:00:26;5.63;;;4.03;;
77581;SDS011;66726;52.388;9.986;2023-06-01T13:03:20;5.93;;;4.50;;
77581;SDS011;66726;52.388;9.986;2023-06-01T13:05:53;9.30;;;3.70;;
77581;SDS011;66726;52.388;9.986;2023-06-01T13:08:27;7.20;;;4.50;;
77581;SDS011;66726;52.388;9.986;2023-06-01T13:11:01;7.10;;;4.17;;
77581;SDS011;66726;52.388;9.986;2023-06-01T13:13:34;7.47;;;4.10;;
77581;SDS011;66726;52.388;9.986;2023-06-01T13:16:11;7.57;;;3.97;;
77581;SDS011;66726;52.388;9.986;2023-06-01T13:18:45;8.67;;;4.07;;
77581;SDS011;66726;52.388;9.986;2023-06-01T13:21:19;6.67;;;4.10;;
77581;SDS011;66726;52.388;9.986;2023-06-01T13:23:53;5.70;;;4.03;;
77581;SDS011;66726;52.388;9.986;2023-06-01T13:26:27;9.97;;;4.80;;
77581;SDS011;66726;52.388;9.986;2023-06-01T13:29:00;10.27;;;4.33;;
77581;SDS011;66726;52.388;9.986;2023-06-01T13:31:34;8.73;;;3.87;;
77581;SDS011;66726;52.388;9.986;2023-06-01T13:34:07;7.60;;;4.20;;
77581;SDS011;66726;52.388;9.986;2023-06-01T13:36:41;6.23;;;3.90;;
77581;SDS011;66726;52.388;9.986;2023-06-01T13:39:14;7.17;;;4.03;;
77581;SDS011;66726;52.388;9.986;2023-06-01T13:41:48;9.10;;;4.30;;
77581;SDS011;66726;52.388;9.986;2023-06-01T13:44:22;8.97;;;4.13;;
77581;SDS011;66726;52.388;9.986;2023-06-01T13:46:56;5.87;;;3.90;;
77581;SDS011;66726;52.388;9.986;2023-06-01T13:49:30;5.87;;;3.83;;
77581;SDS011;66726;52.388;9.986;2023-06-01T13:52:03;5.97;;;3.90;;
77581;SDS011;66726;52.388;9.986;2023-06-01T13:54:38;8.03;;;4.30;;
77581;SDS011;66726;52.388;9.986;2023-06-01T13:57:11;5.23;;;3.70;;
77581;SDS011;66726;52.388;9.986;2023-06-01T13:59:45;10.07;;;4.60;;
77581;SDS011;66726;52.388;9.986;2023-06-01T14:02:18;10.23;;;4.77;;
77581;SDS011;66726;52.388;9.986;2023-06-01T14:04:52;10.83;;;4.30;;
77581;SDS011;66726;52.388;9.986;2023-06-01T14:07:34;6.23;;;3.70;;
77581;SDS011;66726;52.388;9.986;2023-06-01T14:10:08;7.20;;;3.73;;
77581;SDS011;66726;52.388;9.986;2023-06-01T14:12:45;10.27;;;3.50;;
77581;SDS011;66726;52.388;9.986;2023-06-01T14:15:18;5.40;;;3.57;;
77581;SDS011;66726;52.388;9.986;2023-06-01T14:17:52;4.63;;;3.37;;
77581;SDS011;66726;52.388;9.986;2023-06-01T14:20:25;7.57;;;3.33;;
77581;SDS011;66726;52.388;9.986;2023-06-01T14:23:00;6.73;;;3.57;;
77581;SDS011;66726;52.388;9.986;2023-06-01T14:25:37;9.50;;;3.67;;
77581;SDS011;66726;52.388;9.986;2023-06-01T14:28:11;6.93;;;3.60;;
77581;SDS011;66726;52.388;9.986;2023-06-01T14:30:44;6.17;;;3.40;;
77581;SDS011;66726;52.388;9.986;2023-06-01T14:33:18;5.77;;;3.30;;
77581;SDS011;66726;52.388;9.986;2023-06-01T14:35:51;5.23;;;3.27;;
77581;SDS011;66726;52.388;9.986;2023-06-01T14:38:24;6.43;;;3.60;;
77581;SDS011;66726;52.388;9.986;2023-06-01T14:40:58;8.67;;;3.70;;
77581;SDS011;66726;52.388;9.986;2023-06-01T14:43:32;8.00;;;3.53;;
77581;SDS011;66726;52.388;9.986;2023-06-01T14:46:06;8.67;;;3.70;;
77581;SDS011;66726;52.388;9.986;2023-06-01T14:48:40;8.70;;;4.00;;
77581;SDS011;66726;52.388;9.986;2023-06-01T14:51:14;6.97;;;3.57;;
77581;SDS011;66726;52.388;9.986;2023-06-01T14:53:47;8.03;;;3.70;;
77581;SDS011;66726;52.388;9.986;2023-06-01T14:56:21;4.97;;;3.23;;
77581;SDS011;66726;52.388;9.986;2023-06-01T14:58:55;8.60;;;3.53;;
77581;SDS011;66726;52.388;9.986;2023-06-01T15:01:28;7.03;;;3.57;;
77581;SDS011;66726;52.388;9.986;2023-06-01T15:04:02;7.17;;;3.87;;
77581;SDS011;66726;52.388;9.986;2023-06-01T15:06:35;7.43;;;3.50;;
77581;SDS011;66726;52.388;9.986;2023-06-01T15:09:08;8.40;;;3.53;;
77581;SDS011;66726;52.388;9.986;2023-06-01T15:11:42;9.97;;;5.10;;
77581;SDS011;66726;52.388;9.986;2023-06-01T15:14:16;9.07;;;3.60;;
77581;SDS011;66726;52.388;9.986;2023-06-01T15:16:49;11.30;;;4.20;;
77581;SDS011;66726;52.388;9.986;2023-06-01T15:19:24;7.93;;;3.90;;
77581;SDS011;66726;52.388;9.986;2023-06-01T15:21:57;9.30;;;3.87;;
77581;SDS011;66726;52.388;9.986;2023-06-01T15:24:31;7.20;;;3.60;;
77581;SDS011;66726;52.388;9.986;2023-06-01T15:27:06;11.67;;;4.17;;
77581;SDS011;66726;52.388;9.986;2023-06-01T15:29:40;6.97;;;4.00;;
77581;SDS011;66726;52.388;9.986;2023-06-01T15:32:13;8.13;;;4.20;;
77581;SDS011;66726;52.388;9.986;2023-06-01T15:34:46;10.47;;;4.63;;
77581;SDS011;66726;52.388;9.986;2023-06-01T15:37:20;10.57;;;4.57;;
77581;SDS011;66726;52.388;9.986;2023-06-01T15:39:53;9.43;;;4.10;;
77581;SDS011;66726;52.388;9.986;2023-06-01T15:42:27;7.80;;;4.90;;
77581;SDS011;66726;52.388;9.986;2023-06-01T15:45:00;8.90;;;4.70;;
77581;SDS011;66726;52.388;9.986;2023-06-01T15:47:37;9.00;;;4.30;;
77581;SDS011;66726;52.388;9.986;2023-06-01T15:50:12;8.47;;;4.30;;